Time;durP1;ratioP1;P1;durP2;ratioP2;P2;SDS_P1;SDS_P2;PMS_P1;PMS_P2;Temp;Humidity;BMP_temperature;BMP_pressure;BME280_temperature;BME280_humidity;BME280_pressure;Samples;Min_cycle;Max_cycle;Signal;HPM_P1;HPM_P2
2022/09/09 00:02:02;;;;;;;;;;;15.10;94.30;;;;;;6185628;23;19913;-67
2022/09/09 00:04:33;;;;;;;;;;;15.10;94.10;;;;;;6185769;23;19927;-67
2022/09/09 00:07:18;;;;;;;;;;;15.10;94.30;;;;;;6185522;23;19920;-67
2022/09/09 00:10:07;;;;;;;;;;;15.20;94.30;;;;;;6185656;23;20359;-67
2022/09/09 00:12:49;;;;;;;;;;;15.10;94.50;;;;;;6159822;23;19904;-66
2022/09/09 00:15:20;;;;;;;;;;;15.20;94.80;;;;;;6185805;23;19904;-67
2022/09/09 00:17:59;;;;;;;;;;;15.20;94.70;;;;;;6159489;23;20382;-67
2022/09/09 00:20:29;;;;;;;;;;;15.20;94.80;;;;;;6185415;23;19904;-67
2022/09/09 00:23:06;;;;;;;;;;;15.30;94.80;;;;;;6185440;23;19909;-67
2022/09/09 00:25:48;;;;;;;;;;;15.20;94.70;;;;;;6185728;23;19986;-67
2022/09/09 00:28:18;;;;;;;;;;;15.20;94.70;;;;;;6185212;23;20299;-67
2022/09/09 00:30:48;;;;;;;;;;;15.20;94.80;;;;;;6185370;23;19905;-67
2022/09/09 00:33:15;;;;;;;;;;;15.30;94.90;;;;;;6184915;23;20280;-66
2022/09/09 00:35:45;;;;;;;;;;;15.30;94.90;;;;;;6159240;23;20300;-67
2022/09/09 00:38:16;;;;;;;;;;;15.40;95.00;;;;;;6185467;23;20285;-67
2022/09/09 00:40:47;;;;;;;;;;;15.50;95.00;;;;;;6159280;23;19916;-67
2022/09/09 00:43:26;;;;;;;;;;;15.40;94.90;;;;;;6158990;23;19974;-67
2022/09/09 00:46:08;;;;;;;;;;;15.50;94.90;;;;;;6158902;23;19959;-67
2022/09/09 00:48:54;;;;;;;;;;;15.60;95.10;;;;;;6185604;23;20330;-67
2022/09/09 00:51:26;;;;;;;;;;;15.70;95.00;;;;;;6185446;23;19911;-67
2022/09/09 00:54:07;;;;;;;;;;;15.60;94.90;;;;;;6184963;23;19946;-67
2022/09/09 00:56:47;;;;;;;;;;;15.70;94.70;;;;;;6185682;23;19936;-67
2022/09/09 00:59:14;;;;;;;;;;;15.60;94.70;;;;;;6184815;23;19905;-67
2022/09/09 01:01:41;;;;;;;;;;;15.60;94.60;;;;;;6185238;23;19944;-67
2022/09/09 01:04:17;;;;;;;;;;;15.70;94.80;;;;;;6185541;23;19904;-67
2022/09/09 01:06:44;;;;;;;;;;;15.60;94.30;;;;;;6158205;23;20239;-67
2022/09/09 01:09:14;;;;;;;;;;;15.60;94.30;;;;;;6158719;23;19927;-67
2022/09/09 01:11:52;;;;;;;;;;;15.70;94.30;;;;;;6158988;23;20240;-67
2022/09/09 01:14:30;;;;;;;;;;;15.70;94.50;;;;;;6184874;23;19904;-67
2022/09/09 01:16:59;;;;;;;;;;;15.60;94.20;;;;;;6184786;23;19908;-67
2022/09/09 01:19:35;;;;;;;;;;;15.70;94.30;;;;;;6159221;23;19905;-67
2022/09/09 01:22:04;;;;;;;;;;;15.70;94.20;;;;;;6158097;23;20292;-67
2022/09/09 01:24:30;;;;;;;;;;;15.80;94.40;;;;;;6158508;23;19905;-69
2022/09/09 01:26:58;;;;;;;;;;;16.00;94.20;;;;;;6184700;23;20220;-67
2022/09/09 01:29:25;;;;;;;;;;;16.00;93.80;;;;;;6158736;23;19904;-67
2022/09/09 01:31:55;;;;;;;;;;;16.10;94.10;;;;;;6184553;23;19911;-67
2022/09/09 01:34:22;;;;;;;;;;;16.20;94.00;;;;;;6184708;23;19904;-67
2022/09/09 01:37:05;;;;;;;;;;;16.20;93.00;;;;;;6184626;23;19927;-66
2022/09/09 01:39:35;;;;;;;;;;;16.20;92.60;;;;;;6184726;23;19905;-66
2022/09/09 01:42:03;;;;;;;;;;;16.30;92.30;;;;;;6158380;23;20011;-66
2022/09/09 01:44:29;;;;;;;;;;;16.40;92.70;;;;;;6184481;23;20231;-67
2022/09/09 01:46:56;;;;;;;;;;;16.40;92.50;;;;;;6158177;23;19911;-66
2022/09/09 01:49:23;;;;;;;;;;;16.40;91.30;;;;;;6158869;23;19966;-66
2022/09/09 01:51:50;;;;;;;;;;;16.40;91.30;;;;;;6158363;23;19908;-67
2022/09/09 01:54:16;;;;;;;;;;;16.40;91.30;;;;;;6158006;23;19904;-66
2022/09/09 01:56:46;;;;;;;;;;;16.50;91.70;;;;;;6184512;23;19928;-67
2022/09/09 01:59:22;;;;;;;;;;;16.50;90.60;;;;;;6133507;23;19985;-66
2022/09/09 02:02:07;;;;;;;;;;;16.50;90.50;;;;;;6158597;23;19935;-66
2022/09/09 02:04:38;;;;;;;;;;;16.50;89.10;;;;;;6184807;23;19949;-67
2022/09/09 02:07:06;;;;;;;;;;;16.60;89.60;;;;;;6158161;23;19916;-67
2022/09/09 02:09:33;;;;;;;;;;;16.70;90.20;;;;;;6158078;23;20251;-67
2022/09/09 02:12:02;;;;;;;;;;;16.80;90.30;;;;;;6184050;23;19904;-66
2022/09/09 02:14:30;;;;;;;;;;;16.90;89.10;;;;;;6158358;23;19911;-66
2022/09/09 02:16:59;;;;;;;;;;;17.00;90.20;;;;;;6157774;23;19908;-66
2022/09/09 02:19:30;;;;;;;;;;;17.10;90.20;;;;;;6157940;23;19912;-67
2022/09/09 02:21:57;;;;;;;;;;;17.10;89.40;;;;;;6157602;23;19912;-66
2022/09/09 02:24:24;;;;;;;;;;;17.20;88.70;;;;;;6157771;23;20324;-67
2022/09/09 02:26:52;;;;;;;;;;;17.20;87.60;;;;;;6157949;23;20060;-66
2022/09/09 02:29:38;;;;;;;;;;;17.20;86.90;;;;;;6157525;23;19908;-66
2022/09/09 02:32:07;;;;;;;;;;;17.20;86.10;;;;;;6183845;23;19995;-66
2022/09/09 02:34:36;;;;;;;;;;;17.30;87.50;;;;;;6158353;23;19911;-66
2022/09/09 02:37:03;;;;;;;;;;;17.30;85.80;;;;;;6157945;23;20308;-67
2022/09/09 02:39:29;;;;;;;;;;;17.30;85.40;;;;;;6184172;23;19910;-66
2022/09/09 02:41:56;;;;;;;;;;;17.40;85.60;;;;;;6158241;23;19959;-66
2022/09/09 02:44:22;;;;;;;;;;;17.50;86.30;;;;;;6184387;23;19908;-66
2022/09/09 02:47:07;;;;;;;;;;;17.50;85.50;;;;;;6184524;23;19908;-67
2022/09/09 02:49:52;;;;;;;;;;;17.60;85.70;;;;;;6184237;23;19904;-66
2022/09/09 02:52:25;;;;;;;;;;;17.60;84.80;;;;;;6184449;23;20216;-66
2022/09/09 02:54:52;;;;;;;;;;;17.70;85.10;;;;;;6158128;23;20043;-66
2022/09/09 02:57:22;;;;;;;;;;;17.70;85.60;;;;;;6158168;23;20375;-66
2022/09/09 02:59:48;;;;;;;;;;;17.70;83.90;;;;;;6184393;23;19908;-66
2022/09/09 03:02:15;;;;;;;;;;;17.70;82.60;;;;;;6158053;23;19913;-69
2022/09/09 03:04:44;;;;;;;;;;;17.80;84.40;;;;;;6184123;23;19905;-67
2022/09/09 03:07:11;;;;;;;;;;;17.80;82.30;;;;;;6184076;23;19923;-66
2022/09/09 03:09:38;;;;;;;;;;;17.90;84.00;;;;;;6183501;23;19909;-67
2022/09/09 03:12:05;;;;;;;;;;;17.90;82.50;;;;;;6184210;23;19915;-67
2022/09/09 03:14:31;;;;;;;;;;;18.00;83.30;;;;;;6184294;23;20039;-67
2022/09/09 03:17:00;;;;;;;;;;;18.00;83.00;;;;;;6184392;23;20227;-67
2022/09/09 03:19:27;;;;;;;;;;;18.00;82.30;;;;;;6158142;23;19904;-67
2022/09/09 03:21:54;;;;;;;;;;;18.10;81.80;;;;;;6183726;23;19912;-67
2022/09/09 03:24:22;;;;;;;;;;;18.20;83.20;;;;;;6183504;23;20334;-66
2022/09/09 03:26:50;;;;;;;;;;;18.20;83.20;;;;;;6157253;23;19950;-66
2022/09/09 03:29:18;;;;;;;;;;;18.20;82.80;;;;;;6183568;23;19983;-67
2022/09/09 03:31:45;;;;;;;;;;;18.20;81.90;;;;;;6185847;23;20684;-67
2022/09/09 03:34:11;;;;;;;;;;;18.20;82.80;;;;;;6185747;23;19915;-67
2022/09/09 03:36:38;;;;;;;;;;;18.20;83.20;;;;;;6185460;23;19975;-67
2022/09/09 03:39:04;;;;;;;;;;;18.20;83.00;;;;;;6184105;23;19913;-67
2022/09/09 03:41:31;;;;;;;;;;;18.20;81.90;;;;;;6181041;23;19947;-66
2022/09/09 03:43:57;;;;;;;;;;;18.20;79.80;;;;;;6184052;23;19966;-67
2022/09/09 03:46:24;;;;;;;;;;;18.20;80.90;;;;;;6183117;23;19916;-67
2022/09/09 03:48:54;;;;;;;;;;;18.20;80.90;;;;;;6158259;23;19911;-67
2022/09/09 03:51:21;;;;;;;;;;;18.20;80.90;;;;;;6157857;23;20288;-67
2022/09/09 03:53:48;;;;;;;;;;;18.20;81.90;;;;;;6184872;23;19904;-67
2022/09/09 03:56:15;;;;;;;;;;;18.30;83.10;;;;;;6185088;23;19908;-67
2022/09/09 03:58:42;;;;;;;;;;;18.30;82.60;;;;;;6185356;23;19975;-66
2022/09/09 04:01:09;;;;;;;;;;;18.30;82.50;;;;;;6185170;23;19918;-67
2022/09/09 04:03:36;;;;;;;;;;;18.30;82.60;;;;;;6158638;23;19923;-66
2022/09/09 04:06:04;;;;;;;;;;;18.30;82.70;;;;;;6159188;23;19947;-67
2022/09/09 04:08:33;;;;;;;;;;;18.40;80.20;;;;;;6185352;23;19911;-66
2022/09/09 04:11:01;;;;;;;;;;;18.40;81.80;;;;;;6185219;23;20334;-67
2022/09/09 04:13:28;;;;;;;;;;;18.40;80.90;;;;;;6185307;23;19905;-66
2022/09/09 04:15:55;;;;;;;;;;;18.40;80.50;;;;;;6185497;23;19951;-67
2022/09/09 04:18:22;;;;;;;;;;;18.50;79.90;;;;;;6185530;23;19904;-67
2022/09/09 04:20:49;;;;;;;;;;;18.50;81.90;;;;;;6185569;23;20354;-67
2022/09/09 04:23:17;;;;;;;;;;;18.50;80.70;;;;;;6185005;23;19908;-67
2022/09/09 04:25:47;;;;;;;;;;;18.50;80.80;;;;;;6159163;23;19911;-67
2022/09/09 04:28:14;;;;;;;;;;;18.40;80.70;;;;;;6185234;23;20221;-66
2022/09/09 04:30:41;;;;;;;;;;;18.30;80.30;;;;;;6185036;23;20069;-66
2022/09/09 04:33:08;;;;;;;;;;;18.30;80.10;;;;;;6185152;23;20410;-66
2022/09/09 04:35:34;;;;;;;;;;;18.30;80.60;;;;;;6184708;23;19904;-67
2022/09/09 04:38:02;;;;;;;;;;;18.30;81.40;;;;;;6184884;23;19909;-67
2022/09/09 04:40:29;;;;;;;;;;;18.30;81.30;;;;;;6184634;23;19927;-66
2022/09/09 04:42:58;;;;;;;;;;;18.30;80.30;;;;;;6184510;23;19908;-67
2022/09/09 04:45:26;;;;;;;;;;;18.30;79.10;;;;;;6184624;23;19910;-67
2022/09/09 04:47:53;;;;;;;;;;;18.40;77.90;;;;;;6185131;23;19991;-66
2022/09/09 04:50:19;;;;;;;;;;;18.50;78.50;;;;;;6185270;23;20332;-67
2022/09/09 04:52:46;;;;;;;;;;;18.50;77.90;;;;;;6185085;23;19904;-66
2022/09/09 04:55:12;;;;;;;;;;;18.50;78.20;;;;;;6184979;23;19939;-67
2022/09/09 04:57:39;;;;;;;;;;;18.50;77.90;;;;;;6184310;23;20221;-67
2022/09/09 05:00:07;;;;;;;;;;;18.50;76.70;;;;;;6184376;23;19909;-67
2022/09/09 05:02:33;;;;;;;;;;;18.50;76.90;;;;;;6184779;23;19951;-66
2022/09/09 05:05:00;;;;;;;;;;;18.50;77.50;;;;;;6158362;23;19911;-66
2022/09/09 05:07:27;;;;;;;;;;;18.50;77.70;;;;;;6183616;23;19916;-66
2022/09/09 05:09:54;;;;;;;;;;;18.50;78.30;;;;;;6184724;23;19912;-66
2022/09/09 05:12:22;;;;;;;;;;;18.50;79.00;;;;;;6184694;23;19904;-66
2022/09/09 05:14:49;;;;;;;;;;;18.50;78.40;;;;;;6184913;23;19904;-66
2022/09/09 05:17:16;;;;;;;;;;;18.40;78.40;;;;;;6184704;23;20351;-68
2022/09/09 05:19:42;;;;;;;;;;;18.40;77.80;;;;;;6184520;23;19908;-66
2022/09/09 05:22:09;;;;;;;;;;;18.40;77.40;;;;;;6184723;23;19912;-66
2022/09/09 05:24:36;;;;;;;;;;;18.40;78.10;;;;;;6179849;23;20304;-68
2022/09/09 05:27:04;;;;;;;;;;;18.40;77.70;;;;;;6181773;23;19936;-67
2022/09/09 05:29:33;;;;;;;;;;;18.40;78.70;;;;;;6180800;23;20410;-67
2022/09/09 05:31:59;;;;;;;;;;;18.40;79.30;;;;;;6181895;23;19929;-68
2022/09/09 05:34:26;;;;;;;;;;;18.50;79.30;;;;;;6180978;23;20375;-68
2022/09/09 05:36:53;;;;;;;;;;;18.40;80.40;;;;;;6180487;23;19959;-68
2022/09/09 05:39:20;;;;;;;;;;;18.40;80.50;;;;;;6180927;23;19908;-68
2022/09/09 05:41:46;;;;;;;;;;;18.40;80.90;;;;;;6181246;23;19923;-68
2022/09/09 05:44:13;;;;;;;;;;;18.50;80.40;;;;;;6181104;23;19999;-68
2022/09/09 05:46:39;;;;;;;;;;;18.50;80.10;;;;;;6181219;23;19909;-69
2022/09/09 05:49:06;;;;;;;;;;;18.50;80.40;;;;;;6181383;23;20398;-72
2022/09/09 05:51:33;;;;;;;;;;;18.50;81.10;;;;;;6179733;23;20216;-69
2022/09/09 05:53:59;;;;;;;;;;;18.40;81.80;;;;;;6181374;23;19948;-70
2022/09/09 05:56:27;;;;;;;;;;;18.40;82.20;;;;;;6178253;23;19991;-71
2022/09/09 05:58:54;;;;;;;;;;;18.40;82.70;;;;;;6180912;23;19975;-72
2022/09/09 06:01:21;;;;;;;;;;;18.30;83.10;;;;;;6180331;23;19916;-70
2022/09/09 06:03:48;;;;;;;;;;;18.30;82.60;;;;;;6154366;23;19944;-70
2022/09/09 06:06:20;;;;;;;;;;;18.30;82.40;;;;;;6154158;23;20039;-71
2022/09/09 06:08:47;;;;;;;;;;;18.30;82.50;;;;;;6154555;23;19908;-71
2022/09/09 06:11:14;;;;;;;;;;;18.20;83.10;;;;;;6179127;23;19939;-71
2022/09/09 06:13:41;;;;;;;;;;;18.20;82.40;;;;;;6181037;23;19940;-72
2022/09/09 06:16:08;;;;;;;;;;;18.00;79.60;;;;;;6180458;23;20339;-73
2022/09/09 06:18:35;;;;;;;;;;;18.00;79.10;;;;;;6154211;23;20399;-70
2022/09/09 06:21:04;;;;;;;;;;;17.90;80.40;;;;;;6177491;23;19974;-70
2022/09/09 06:23:30;;;;;;;;;;;17.90;81.70;;;;;;6153726;23;19908;-67
2022/09/09 06:26:01;;;;;;;;;;;17.80;85.00;;;;;;6180502;23;19939;-67
2022/09/09 06:28:28;;;;;;;;;;;17.60;87.70;;;;;;6180277;23;20344;-67
2022/09/09 06:31:00;;;;;;;;;;;17.30;88.30;;;;;;6180514;23;19915;-67
2022/09/09 06:33:27;;;;;;;;;;;17.20;89.40;;;;;;6180114;23;19911;-69
2022/09/09 06:35:54;;;;;;;;;;;16.90;89.60;;;;;;6180111;23;19908;-69
2022/09/09 06:38:22;;;;;;;;;;;16.80;89.80;;;;;;6180646;23;20316;-69
2022/09/09 06:40:57;;;;;;;;;;;16.70;90.60;;;;;;6180311;23;19924;-68
2022/09/09 06:43:25;;;;;;;;;;;16.50;89.60;;;;;;6180941;23;19908;-68
2022/09/09 06:45:54;;;;;;;;;;;16.40;89.20;;;;;;6180402;23;19939;-68
2022/09/09 06:48:21;;;;;;;;;;;16.30;88.00;;;;;;6180930;23;20296;-68
2022/09/09 06:50:49;;;;;;;;;;;16.30;88.90;;;;;;6180395;23;19912;-68
2022/09/09 06:53:19;;;;;;;;;;;16.40;88.80;;;;;;6180113;23;19916;-68
2022/09/09 06:55:46;;;;;;;;;;;16.40;88.30;;;;;;6177881;23;19962;-68
2022/09/09 06:58:12;;;;;;;;;;;16.60;88.80;;;;;;6153834;23;19979;-68
2022/09/09 07:00:39;;;;;;;;;;;16.80;87.90;;;;;;6180392;23;19912;-68
2022/09/09 07:03:06;;;;;;;;;;;16.90;87.90;;;;;;6181257;23;19915;-68
2022/09/09 07:05:32;;;;;;;;;;;17.00;88.60;;;;;;6180753;23;19928;-68
2022/09/09 07:07:59;;;;;;;;;;;17.20;89.10;;;;;;6180079;23;19979;-68
2022/09/09 07:10:25;;;;;;;;;;;17.20;89.10;;;;;;6181318;23;19930;-68
2022/09/09 07:12:55;;;;;;;;;;;17.20;88.70;;;;;;6181380;23;20572;-68
2022/09/09 07:15:22;;;;;;;;;;;17.20;88.30;;;;;;6181886;23;19915;-68
2022/09/09 07:17:49;;;;;;;;;;;17.20;88.30;;;;;;6180733;23;19904;-69
2022/09/09 07:20:15;;;;;;;;;;;17.30;88.40;;;;;;6182187;23;19908;-69
2022/09/09 07:22:42;;;;;;;;;;;17.30;88.30;;;;;;6155956;23;19991;-68
2022/09/09 07:25:09;;;;;;;;;;;17.30;88.40;;;;;;6181829;23;19915;-68
2022/09/09 07:27:35;;;;;;;;;;;17.20;88.40;;;;;;6180452;23;20339;-70
2022/09/09 07:30:02;;;;;;;;;;;17.20;88.50;;;;;;6182525;23;20243;-70
2022/09/09 07:32:30;;;;;;;;;;;17.20;88.60;;;;;;6182238;23;19904;-70
2022/09/09 07:34:58;;;;;;;;;;;17.20;88.30;;;;;;6182117;23;19911;-70
2022/09/09 07:37:24;;;;;;;;;;;17.20;88.30;;;;;;6181906;23;20393;-69
2022/09/09 07:39:51;;;;;;;;;;;17.20;88.30;;;;;;6182140;23;19990;-70
2022/09/09 07:42:17;;;;;;;;;;;17.20;88.50;;;;;;6179624;23;19995;-70
2022/09/09 07:44:44;;;;;;;;;;;17.20;88.50;;;;;;6182215;23;20346;-69
2022/09/09 07:47:11;;;;;;;;;;;17.20;88.70;;;;;;6181730;23;19911;-68
2022/09/09 07:49:37;;;;;;;;;;;17.20;88.70;;;;;;6181274;23;19911;-69
2022/09/09 07:52:04;;;;;;;;;;;17.10;88.60;;;;;;6181293;23;20017;-69
2022/09/09 07:54:32;;;;;;;;;;;17.10;89.20;;;;;;6152653;23;19916;-70
2022/09/09 07:56:59;;;;;;;;;;;17.10;89.10;;;;;;6181034;23;19911;-68
2022/09/09 07:59:25;;;;;;;;;;;17.00;88.80;;;;;;6180646;23;20236;-70
2022/09/09 08:01:55;;;;;;;;;;;17.00;88.90;;;;;;6155277;23;19925;-69
2022/09/09 08:04:21;;;;;;;;;;;17.00;88.70;;;;;;6180871;23;19912;-69
2022/09/09 08:06:49;;;;;;;;;;;17.00;88.00;;;;;;6180079;23;19920;-69
2022/09/09 08:09:16;;;;;;;;;;;17.00;88.00;;;;;;6181982;23;19912;-69
2022/09/09 08:11:42;;;;;;;;;;;17.00;88.10;;;;;;6180314;23;19911;-68
2022/09/09 08:14:09;;;;;;;;;;;16.90;88.20;;;;;;6181803;23;19909;-68
2022/09/09 08:16:37;;;;;;;;;;;16.90;88.40;;;;;;6154991;23;19909;-68
2022/09/09 08:19:04;;;;;;;;;;;17.00;88.50;;;;;;6181633;23;20349;-69
2022/09/09 08:21:31;;;;;;;;;;;16.90;88.50;;;;;;6154861;23;19919;-69
2022/09/09 08:23:58;;;;;;;;;;;16.90;88.80;;;;;;6180151;23;19978;-70
2022/09/09 08:26:35;;;;;;;;;;;16.90;88.60;;;;;;6182149;23;20014;-69
2022/09/09 08:29:02;;;;;;;;;;;16.80;88.70;;;;;;6181929;23;19912;-70
2022/09/09 08:31:29;;;;;;;;;;;16.80;88.70;;;;;;6182622;23;20243;-70
2022/09/09 08:33:56;;;;;;;;;;;16.80;88.30;;;;;;6181216;23;20333;-69
2022/09/09 08:36:25;;;;;;;;;;;16.80;88.70;;;;;;6181787;23;19912;-68
2022/09/09 08:38:56;;;;;;;;;;;16.80;89.00;;;;;;6182520;23;19912;-69
2022/09/09 14:50:59;;;;;;;;;;;15.60;75.40;;;;;;6179351;23;20019;-68
2022/09/09 14:53:26;;;;;;;;;;;15.60;76.50;;;;;;6153267;23;19921;-67
2022/09/09 14:55:53;;;;;;;;;;;15.60;75.70;;;;;;6127944;23;19909;-68
2022/09/09 14:58:19;;;;;;;;;;;15.50;75.80;;;;;;6153809;23;19920;-68
2022/09/09 15:00:46;;;;;;;;;;;15.50;76.30;;;;;;6154772;23;19911;-68
2022/09/09 15:03:12;;;;;;;;;;;15.50;75.80;;;;;;6153696;23;19909;-67
2022/09/09 15:05:39;;;;;;;;;;;15.50;76.10;;;;;;6152767;23;20300;-68
2022/09/09 15:08:06;;;;;;;;;;;15.50;75.80;;;;;;6153449;23;20383;-68
2022/09/09 15:10:32;;;;;;;;;;;15.50;75.80;;;;;;6154126;23;19904;-68
2022/09/09 15:12:59;;;;;;;;;;;15.50;75.80;;;;;;6153025;23;19904;-68
2022/09/09 15:15:26;;;;;;;;;;;15.50;75.70;;;;;;6153240;23;19905;-68
2022/09/09 15:17:53;;;;;;;;;;;15.50;75.50;;;;;;6153150;23;19911;-68
2022/09/09 15:20:19;;;;;;;;;;;15.50;76.00;;;;;;6154173;23;20328;-68
2022/09/09 15:22:46;;;;;;;;;;;15.50;76.10;;;;;;6153300;23;19940;-69
2022/09/09 15:25:13;;;;;;;;;;;15.40;75.90;;;;;;6154055;23;19917;-69
2022/09/09 15:27:40;;;;;;;;;;;15.40;76.20;;;;;;6155518;23;19913;-69
2022/09/09 15:30:07;;;;;;;;;;;15.40;76.70;;;;;;6155898;23;19924;-69
2022/09/09 15:32:34;;;;;;;;;;;15.40;77.30;;;;;;6156297;23;20223;-68
2022/09/09 15:35:01;;;;;;;;;;;15.40;77.50;;;;;;6129327;23;19908;-68
2022/09/09 15:37:28;;;;;;;;;;;15.30;77.10;;;;;;6154979;23;19953;-69
2022/09/09 15:39:54;;;;;;;;;;;15.30;77.20;;;;;;6156919;23;19904;-68
2022/09/09 15:42:21;;;;;;;;;;;15.30;77.20;;;;;;6155792;23;19959;-69
2022/09/09 15:44:47;;;;;;;;;;;15.30;77.10;;;;;;6155771;23;19979;-68
2022/09/09 15:47:15;;;;;;;;;;;15.30;77.20;;;;;;6155222;23;20368;-69
2022/09/09 15:49:41;;;;;;;;;;;15.30;77.40;;;;;;6155284;23;20382;-68
2022/09/09 19:04:17;;;;;;;;;;;14.70;81.10;;;;;;6183088;23;19924;-69
2022/09/09 19:06:45;;;;;;;;;;;14.70;81.80;;;;;;6185598;23;20177;-68
2022/09/09 19:09:12;;;;;;;;;;;14.70;81.60;;;;;;6185917;23;19904;-68
2022/09/09 19:11:39;;;;;;;;;;;14.70;81.70;;;;;;6184962;23;19990;-69
2022/09/09 19:14:09;;;;;;;;;;;14.70;81.80;;;;;;6185203;23;19978;-68
2022/09/09 19:16:36;;;;;;;;;;;14.60;81.70;;;;;;6160549;23;19904;-68
2022/09/09 19:19:11;;;;;;;;;;;14.60;81.70;;;;;;6185506;23;19912;-68
2022/09/09 19:21:37;;;;;;;;;;;14.50;81.20;;;;;;6185037;23;19959;-68
2022/09/09 19:24:05;;;;;;;;;;;14.60;81.30;;;;;;6185781;23;19936;-69
2022/09/09 19:26:33;;;;;;;;;;;14.60;82.00;;;;;;6185158;23;19904;-69
2022/09/09 19:29:01;;;;;;;;;;;14.60;81.70;;;;;;6186255;23;19909;-69
2022/09/09 19:31:29;;;;;;;;;;;14.60;82.20;;;;;;6157142;23;19908;-73
2022/09/09 19:33:56;;;;;;;;;;;14.60;81.40;;;;;;6183239;23;19904;-70
2022/09/09 19:36:22;;;;;;;;;;;14.50;81.90;;;;;;6183198;23;20331;-70
2022/09/09 19:38:49;;;;;;;;;;;14.50;81.90;;;;;;6155936;23;19958;-70
2022/09/09 19:41:20;;;;;;;;;;;14.50;81.90;;;;;;6131752;23;20363;-69
2022/09/09 19:43:47;;;;;;;;;;;14.50;81.80;;;;;;6182304;23;20326;-70
2022/09/09 19:46:15;;;;;;;;;;;14.50;82.30;;;;;;6154935;23;19919;-71
2022/09/09 19:48:41;;;;;;;;;;;14.50;82.10;;;;;;6182157;23;19954;-69
2022/09/09 19:51:08;;;;;;;;;;;14.50;81.10;;;;;;6180375;23;19966;-69
2022/09/09 19:53:35;;;;;;;;;;;14.50;81.30;;;;;;6180399;23;19915;-69
2022/09/09 19:56:05;;;;;;;;;;;14.50;81.80;;;;;;6155566;23;19916;-71
2022/09/09 19:58:33;;;;;;;;;;;14.50;82.10;;;;;;6156680;23;19916;-70
2022/09/09 20:01:10;;;;;;;;;;;14.50;81.80;;;;;;6181737;23;19916;-69
